Главная страница
METAR-TAF:

METAR-TAF

Аэропорты :

Нальчик, Россия

широта: 43-30-46N, долгота: 043-38-12E, высота над уровнем моря: 445 м

Текущие метеонаблюдения

Эта сводка был подготовлена 10 минут назад, в 03:00 UTC
Ветер 2 Узел от западный
Температура 17°C
Влажность 82%
Давление 1013 hPa
Видимость 10 км и более

METAR: URMN 170300Z 27001MPS 9999 NSC 17/14 Q1013 R24/////// NOSIG RMK QFE723

Время: 06:10 (03:10 UTC)

Прогноз

Эта сводка был подготовлена 1 час и 10 минут назад, в 02:00 UTC
Прогноз действительный с 17-го 03 UTC до 17-го 12 UTC
Ветер 6 Узел от западный-юго-западный
Видимость 10 км и более
Рассеянная облачность на высоте 2000 фута
временами
С 17-го 03 UTC до 17-го 06 UTC
Видимость: 3100 м
Рассеянная облачность на высоте 1100 фута
дымка
изменения
С 17-го 06 UTC до 17-го 08 UTC
Ветер 6 Узел от северо-восточный с порывами до 16 Узел
Отдельные облака на высоте 2000 фута

TAF: URMN 170200Z 1703/1712 24003MPS 9999 BKN020 TEMPO 1703/1706 3100 BR BKN011 BECMG 1706/1708 04003G08MPS SCT020

Метеонаблюдения и прогнозы для более 4000 аэропортов (сводки METAR и TAF).

Имеющиеся станции представлены на карте желтыми и красными точками.

Чтобы увидеть название станции, наведите на нее мышь.

Затем щелкните, чтобы увидеть метеонаблюдения и метеопрогнозы.

Управление картой: чтобы увеличить масштаб, щелкните зеленые кнопки с черным крестиком; чтобы уменьшить масштаб, щелкните зеленую кнопку с тире; для просмотра соседних карт щелкайте зеленые стрелки.


METAR-TAF: